Time;durP1;ratioP1;P1;durP2;ratioP2;P2;SDS_P1;SDS_P2;PMS_P1;PMS_P2;Temp;Humidity;BMP_temperature;BMP_pressure;BME280_temperature;BME280_humidity;BME280_pressure;Samples;Min_cycle;Max_cycle;Signal;HPM_P1;HPM_P2
2022/03/29 00:01:58;;;;;;;64.82;38.45;;;;;;;9.11;100.00;99230.97;5109109;28;20039;-81
2022/03/29 00:04:24;;;;;;;78.93;41.92;;;;;;;9.13;100.00;99230.81;5102617;28;20032;-82
2022/03/29 00:06:50;;;;;;;82.05;42.63;;;;;;;9.13;100.00;99233.41;5095958;28;20031;-80
2022/03/29 00:09:16;;;;;;;78.13;45.17;;;;;;;9.07;100.00;99218.44;5099774;28;20036;-81
2022/03/29 00:11:42;;;;;;;84.63;47.20;;;;;;;9.08;100.00;99220.06;5095497;28;20240;-81
2022/03/29 00:14:08;;;;;;;88.50;48.28;;;;;;;8.96;100.00;99207.41;5095438;28;20032;-82
2022/03/29 00:16:34;;;;;;;89.10;49.38;;;;;;;8.93;100.00;99207.75;5104686;28;20130;-82
2022/03/29 00:19:00;;;;;;;81.20;46.22;;;;;;;9.03;100.00;99220.59;5114482;28;20110;-82
2022/03/29 00:21:25;;;;;;;92.18;48.38;;;;;;;8.94;100.00;99198.09;5083683;28;20032;-82
2022/03/29 00:23:51;;;;;;;89.32;49.47;;;;;;;8.92;100.00;99203.53;5099803;28;20043;-81
2022/03/29 00:26:17;;;;;;;89.00;47.97;;;;;;;9.08;100.00;99230.53;5095639;28;20392;-83
2022/03/29 00:28:43;;;;;;;89.35;49.55;;;;;;;9.08;100.00;99214.81;5095868;28;20535;-83
2022/03/29 00:31:10;;;;;;;94.90;51.40;;;;;;;9.05;100.00;99230.91;5110325;28;20035;-82
2022/03/29 00:33:36;;;;;;;101.38;53.50;;;;;;;8.83;100.00;99212.44;5112143;28;20038;-82
2022/03/29 00:36:02;;;;;;;106.43;53.17;;;;;;;8.84;100.00;99200.97;5093773;28;20035;-83
2022/03/29 00:38:28;;;;;;;98.97;53.63;;;;;;;8.86;100.00;99212.09;5095654;28;20032;-82
2022/03/29 00:40:55;;;;;;;105.65;54.58;;;;;;;8.70;100.00;99207.81;5095884;28;20037;-84
2022/03/29 00:43:21;;;;;;;97.88;52.95;;;;;;;8.57;100.00;99177.03;5095677;28;20106;-83
2022/03/29 00:45:47;;;;;;;101.35;54.30;;;;;;;8.69;100.00;99204.41;5094978;28;20043;-84
2022/03/29 00:48:13;;;;;;;100.72;54.25;;;;;;;8.77;100.00;99213.16;5102750;28;20480;-82
2022/03/29 00:50:41;;;;;;;95.00;52.97;;;;;;;8.62;100.00;99195.63;5094397;28;20084;-83
2022/03/29 00:53:10;;;;;;;102.70;56.53;;;;;;;8.49;100.00;99183.13;5095546;28;20032;-83
2022/03/29 00:55:37;;;;;;;113.40;57.25;;;;;;;8.49;100.00;99180.50;5094066;28;20059;-81
2022/03/29 00:58:06;;;;;;;111.75;57.85;;;;;;;8.61;100.00;99196.59;5094280;28;20075;-82
2022/03/29 01:00:33;;;;;;;127.15;60.92;;;;;;;8.25;100.00;99155.38;5095440;28;20024;-83
2022/03/29 01:03:02;;;;;;;133.32;62.58;;;;;;;8.51;100.00;99196.84;5095780;28;20497;-82
2022/03/29 01:05:28;;;;;;;131.25;62.28;;;;;;;8.43;100.00;99170.75;5077985;28;20547;-84
2022/03/29 01:07:56;;;;;;;123.43;60.03;;;;;;;8.54;100.00;99190.47;5109578;28;20028;-84
2022/03/29 01:10:23;;;;;;;123.82;60.33;;;;;;;8.48;100.00;99199.00;5085744;28;20024;-85
2022/03/29 01:12:56;;;;;;;124.07;58.83;;;;;;;8.23;100.00;99159.97;5103782;28;20027;-85
2022/03/29 01:15:26;;;;;;;124.95;60.28;;;;;;;8.34;100.00;99185.69;5103065;28;20049;-81
2022/03/29 01:17:53;;;;;;;120.88;58.83;;;;;;;8.39;100.00;99185.97;5113545;28;20036;-82
2022/03/29 01:20:21;;;;;;;132.95;60.20;;;;;;;8.35;100.00;99187.31;5098789;28;20040;-82
2022/03/29 01:22:52;;;;;;;121.00;58.67;;;;;;;8.35;100.00;99182.09;5083676;28;20096;-83
2022/03/29 01:25:36;;;;;;;112.82;55.70;;;;;;;8.28;100.00;99168.09;5103696;28;20497;-84
2022/03/29 01:28:05;;;;;;;135.13;62.58;;;;;;;8.00;100.00;99150.34;5095973;28;20030;-84
2022/03/29 01:30:32;;;;;;;130.57;61.95;;;;;;;8.26;100.00;99177.94;5076230;28;20020;-83
2022/03/29 01:33:00;;;;;;;134.63;62.58;;;;;;;8.17;100.00;99165.91;5099776;28;20089;-82
2022/03/29 01:35:28;;;;;;;146.20;64.85;;;;;;;8.00;100.00;99145.09;5097857;28;20064;-82
2022/03/29 01:37:55;;;;;;;150.18;66.93;;;;;;;8.19;100.00;99166.53;5117510;28;20036;-83
2022/03/29 01:40:23;;;;;;;165.32;67.00;;;;;;;8.15;100.00;99172.13;5119875;28;20031;-83
2022/03/29 01:42:49;;;;;;;163.48;69.75;;;;;;;8.14;100.00;99167.88;5111321;28;20042;-84
2022/03/29 01:45:16;;;;;;;176.05;71.47;;;;;;;7.92;100.00;99126.88;5102062;28;20171;-82
2022/03/29 01:47:42;;;;;;;177.32;72.70;;;;;;;7.95;100.00;99118.69;5097915;28;20588;-83
2022/03/29 01:50:09;;;;;;;188.73;73.90;;;;;;;8.21;100.00;99159.31;5111707;28;20067;-83
2022/03/29 01:52:40;;;;;;;187.50;74.13;;;;;;;8.07;100.00;99130.38;5103645;28;20036;-83
2022/03/29 01:55:07;;;;;;;200.88;75.63;;;;;;;8.27;100.00;99166.47;5103731;28;20063;-83
2022/03/29 01:57:33;;;;;;;198.73;77.75;;;;;;;8.24;100.00;99149.34;5109037;28;20032;-82
2022/03/29 02:02:44;;;;;;;229.68;78.28;;;;;;;8.15;100.00;99138.13;5096378;28;20020;-83
2022/03/29 02:05:10;;;;;;;214.52;77.40;;;;;;;8.23;100.00;99132.03;5085991;28;20074;-82
2022/03/29 02:07:36;;;;;;;220.63;81.18;;;;;;;8.33;100.00;99149.25;5093820;28;20032;-82
2022/03/29 02:10:05;;;;;;;250.82;81.50;;;;;;;8.20;100.00;99118.47;5089090;28;20028;-84
2022/03/29 02:12:30;;;;;;;235.25;80.68;;;;;;;8.11;100.00;99108.09;5109978;28;20028;-84
2022/03/29 02:14:56;;;;;;;211.98;78.68;;;;;;;8.28;100.00;99115.81;5091429;28;20085;-83
2022/03/29 02:17:22;;;;;;;239.13;78.70;;;;;;;8.33;100.00;99139.63;5090277;28;20027;-84
2022/03/29 02:19:47;;;;;;;197.15;75.05;;;;;;;8.40;100.00;99137.91;5107419;28;20484;-83
2022/03/29 02:22:13;;;;;;;194.80;73.43;;;;;;;8.37;100.00;99135.66;5103342;28;20023;-84
2022/03/29 02:24:38;;;;;;;186.73;73.93;;;;;;;8.21;100.00;99107.03;5110926;28;20401;-83
2022/03/29 02:27:04;;;;;;;190.50;70.20;;;;;;;8.37;100.00;99135.66;5106157;28;20267;-83
2022/03/29 02:29:29;;;;;;;229.65;72.13;;;;;;;7.99;100.00;99096.44;5104321;28;20051;-83
2022/03/29 02:31:55;;;;;;;229.93;71.18;;;;;;;7.88;100.00;99094.25;5106820;28;20165;-82
2022/03/29 02:34:21;;;;;;;196.73;67.60;;;;;;;7.96;100.00;99086.31;5113217;28;20428;-83
2022/03/29 02:36:46;;;;;;;160.73;62.45;;;;;;;7.91;100.00;99101.72;5114638;28;20032;-82
2022/03/29 02:39:12;;;;;;;152.35;63.90;;;;;;;7.71;100.00;99079.50;5099508;28;20050;-83
2022/03/29 02:41:37;;;;;;;185.32;63.70;;;;;;;7.77;100.00;99122.41;5106823;28;20035;-83
2022/03/29 02:44:03;;;;;;;206.13;64.80;;;;;;;7.54;100.00;99072.75;5104684;28;20107;-82
2022/03/29 02:46:30;;;;;;;133.75;59.97;;;;;;;7.43;100.00;99061.72;5109554;28;20024;-83
2022/03/29 02:48:56;;;;;;;139.23;60.47;;;;;;;7.62;100.00;99109.28;5097265;28;20081;-84
2022/03/29 02:51:22;;;;;;;281.63;65.07;;;;;;;7.27;100.00;99073.09;5102616;28;20040;-82
2022/03/29 02:53:50;;;;;;;193.40;61.15;;;;;;;7.50;100.00;99082.75;5111223;28;20107;-82
2022/03/29 02:56:16;;;;;;;148.43;61.30;;;;;;;7.31;100.00;99062.31;5107531;28;20179;-83
2022/03/29 02:58:42;;;;;;;193.82;59.55;;;;;;;7.27;100.00;99062.66;5079898;28;20394;-83
2022/03/29 03:01:08;;;;;;;142.98;60.75;;;;;;;7.35;100.00;99058.34;5083333;28;20074;-82
2022/03/29 03:03:33;;;;;;;125.75;58.47;;;;;;;7.41;100.00;99060.28;5099111;28;20512;-83
2022/03/29 03:05:59;;;;;;;130.27;59.05;;;;;;;7.41;100.00;99065.50;5106144;28;20110;-84
2022/03/29 03:08:25;;;;;;;111.53;55.08;;;;;;;7.49;100.00;99060.22;5107416;28;20034;-83
2022/03/29 03:10:50;;;;;;;120.45;56.60;;;;;;;7.51;100.00;99063.47;5105119;28;20024;-83
2022/03/29 03:13:16;;;;;;;114.40;54.70;;;;;;;7.39;100.00;99050.00;5107964;28;20042;-83
2022/03/29 03:15:42;;;;;;;123.85;56.80;;;;;;;7.44;100.00;99052.09;5106549;28;20020;-83
2022/03/29 03:18:09;;;;;;;115.72;56.35;;;;;;;7.45;100.00;99056.31;5113101;28;20070;-83
2022/03/29 03:20:35;;;;;;;112.43;55.75;;;;;;;7.44;100.00;99057.31;5109388;28;20058;-83
2022/03/29 03:23:01;;;;;;;101.28;50.60;;;;;;;7.25;100.00;99053.34;5086132;28;20112;-83
2022/03/29 03:25:27;;;;;;;101.80;51.92;;;;;;;7.10;100.00;99048.06;5091079;28;20122;-83
2022/03/29 03:27:53;;;;;;;103.32;50.03;;;;;;;7.02;100.00;99042.88;5097472;28;20059;-82
2022/03/29 03:30:18;;;;;;;107.80;50.95;;;;;;;7.00;100.00;99051.69;5092836;28;20363;-83
2022/03/29 03:32:44;;;;;;;112.10;51.75;;;;;;;7.10;100.00;99055.91;5079038;28;20115;-84
2022/03/29 03:35:11;;;;;;;113.40;52.38;;;;;;;7.15;100.00;99059.59;5096164;28;20058;-84
2022/03/29 03:37:37;;;;;;;126.53;54.13;;;;;;;7.20;100.00;99048.66;5096004;28;20032;-82
2022/03/29 03:40:09;;;;;;;142.68;59.00;;;;;;;7.38;100.00;99052.78;5097471;28;20077;-83
2022/03/29 03:42:37;;;;;;;;;;;;;;;7.47;100.00;99019.59;5104211;28;20031;-83
2022/03/29 03:45:03;;;;;;;120.78;55.17;;;;;;;7.80;100.00;99046.25;5118303;28;20357;-82
2022/03/29 03:47:29;;;;;;;138.40;59.55;;;;;;;7.88;100.00;99034.13;5087038;28;20123;-83
2022/03/29 03:49:55;;;;;;;157.98;64.93;;;;;;;7.86;100.00;99052.59;5104677;28;20071;-83
2022/03/29 03:52:21;;;;;;;147.88;61.58;;;;;;;7.78;100.00;99011.66;5113416;28;20593;-82
2022/03/29 03:54:48;;;;;;;193.65;67.50;;;;;;;7.88;100.00;99005.38;5099811;28;20024;-84
2022/03/29 03:57:14;;;;;;;471.90;81.45;;;;;;;8.03;100.00;99031.53;5110623;28;20039;-83
2022/03/29 03:59:41;;;;;;;268.20;70.60;;;;;;;8.17;100.00;99037.78;5097636;28;20055;-84
2022/03/29 04:02:07;;;;;;;152.82;65.18;;;;;;;8.35;100.00;99032.19;5080150;28;20047;-85
2022/03/29 04:04:33;;;;;;;147.27;68.65;;;;;;;8.19;100.00;99014.88;5096440;28;20043;-83
2022/03/29 04:06:59;;;;;;;374.50;72.90;;;;;;;8.11;100.00;99000.91;5101315;28;20058;-85
2022/03/29 04:09:24;;;;;;;146.82;65.82;;;;;;;8.28;100.00;99021.66;5109533;28;20028;-85
2022/03/29 04:11:51;;;;;;;207.30;63.55;;;;;;;7.99;100.00;98976.19;5103947;28;20103;-84
2022/03/29 04:14:16;;;;;;;150.90;63.22;;;;;;;8.25;100.00;99007.13;5078898;28;20489;-84
2022/03/29 04:16:42;;;;;;;242.38;65.82;;;;;;;8.25;100.00;99011.53;5100485;28;20085;-85
2022/03/29 04:19:08;;;;;;;469.05;80.32;;;;;;;7.97;100.00;99002.53;5100066;28;20039;-84
2022/03/29 04:21:34;;;;;;;140.80;62.13;;;;;;;8.18;100.00;99015.88;5117366;28;20036;-84
2022/03/29 04:24:00;;;;;;;367.88;69.63;;;;;;;8.03;100.00;98981.88;5118005;28;20024;-83
2022/03/29 04:26:26;;;;;;;441.17;71.10;;;;;;;7.92;100.00;99001.44;5097527;28;20121;-83
2022/03/29 04:28:52;;;;;;;205.27;63.17;;;;;;;8.02;100.00;99001.16;5098408;28;20028;-84
2022/03/29 04:31:17;;;;;;;261.13;67.05;;;;;;;8.14;100.00;99008.38;5099574;28;20028;-84
2022/03/29 04:33:45;;;;;;;149.45;59.85;;;;;;;8.00;100.00;98972.59;5097350;28;20057;-84
2022/03/29 04:36:13;;;;;;;287.13;71.65;;;;;;;8.03;100.00;98993.13;5106430;28;20031;-84
2022/03/29 04:38:39;;;;;;;368.25;74.40;;;;;;;7.78;100.00;98969.06;5117643;28;20071;-83
2022/03/29 04:41:05;;;;;;;271.48;68.97;;;;;;;8.05;100.00;98991.16;5105678;28;20063;-84
2022/03/29 04:43:32;;;;;;;345.08;75.18;;;;;;;8.08;100.00;98990.81;5095754;28;20508;-84
2022/03/29 04:46:01;;;;;;;292.58;72.53;;;;;;;8.21;100.00;99005.03;5101420;28;20028;-84
2022/03/29 04:48:27;;;;;;;205.20;66.93;;;;;;;8.05;100.00;98985.91;5095303;28;20371;-82
2022/03/29 04:50:53;;;;;;;153.35;65.55;;;;;;;8.37;100.00;98998.84;5109340;28;20553;-84
2022/03/29 04:53:19;;;;;;;222.25;71.28;;;;;;;8.46;100.00;99005.59;5115856;28;20110;-84
2022/03/29 04:55:44;;;;;;;220.32;67.40;;;;;;;8.33;100.00;98998.38;5115544;28;20173;-83
2022/03/29 04:58:11;;;;;;;222.60;71.55;;;;;;;8.47;100.00;98994.13;5117709;28;20051;-84
2022/03/29 05:00:37;;;;;;;184.43;65.07;;;;;;;8.33;100.00;98959.16;5107052;27;20023;-83
2022/03/29 05:03:04;;;;;;;291.50;74.18;;;;;;;7.89;100.00;98954.75;5095852;28;20043;-82
2022/03/29 05:05:30;;;;;;;216.93;63.80;;;;;;;8.25;100.00;98988.00;5094850;28;20039;-84
2022/03/29 05:07:55;;;;;;;170.63;60.03;;;;;;;8.15;100.00;98965.56;5097462;28;20385;-83
2022/03/29 05:10:21;;;;;;;157.15;59.75;;;;;;;8.23;100.00;98956.81;5113189;28;20036;-83
2022/03/29 05:12:48;;;;;;;124.57;53.60;;;;;;;8.18;100.00;98948.72;5102829;28;20421;-83
2022/03/29 05:15:16;;;;;;;197.13;60.35;;;;;;;8.33;100.00;98987.94;5114012;28;20122;-83
2022/03/29 05:17:43;;;;;;;149.10;55.88;;;;;;;8.44;100.00;98971.75;5112806;28;20481;-82
2022/03/29 05:20:11;;;;;;;149.13;56.58;;;;;;;8.51;100.00;98968.47;5100115;28;20072;-84
2022/03/29 05:22:46;;;;;;;139.80;53.85;;;;;;;8.14;100.00;98932.56;5107481;28;20031;-83
2022/03/29 05:25:17;;;;;;;172.02;54.90;;;;;;;8.30;100.00;98951.69;5111774;28;20358;-83
2022/03/29 05:27:43;;;;;;;139.25;52.72;;;;;;;8.57;100.00;98981.63;5105738;28;20110;-83
2022/03/29 05:30:11;;;;;;;225.75;56.25;;;;;;;8.20;100.00;98979.91;5092741;28;20036;-82
2022/03/29 05:32:38;;;;;;;220.98;55.22;;;;;;;7.79;100.00;98934.09;5118412;28;20032;-82
2022/03/29 05:35:07;;;;;;;203.48;57.60;;;;;;;8.01;100.00;98953.28;5113920;28;20551;-82
2022/03/29 05:37:33;;;;;;;123.65;48.63;;;;;;;8.25;100.00;98938.31;5114470;28;20023;-82
2022/03/29 05:39:58;;;;;;;115.65;50.42;;;;;;;8.28;100.00;98961.50;5116207;28;20042;-83
2022/03/29 05:42:24;;;;;;;167.77;55.38;;;;;;;8.40;100.00;98956.63;5115892;28;20032;-81
2022/03/29 05:44:50;;;;;;;216.10;56.42;;;;;;;8.21;100.00;98968.44;5106307;28;20065;-80
2022/03/29 05:50:11;;;;;;;222.63;54.90;;;;;;;8.02;100.00;98913.09;5103584;28;20044;-81
2022/03/29 05:52:38;;;;;;;148.43;54.13;;;;;;;8.46;100.00;98976.03;5096642;28;20032;-82
2022/03/29 05:55:04;;;;;;;153.25;54.97;;;;;;;8.44;100.00;98958.69;5098363;28;20042;-85
2022/03/29 05:57:31;;;;;;;136.57;55.63;;;;;;;8.53;100.00;98951.56;5099320;28;20024;-81
2022/03/29 05:59:57;;;;;;;143.27;54.40;;;;;;;8.60;100.00;98964.75;5105863;28;20026;-82
2022/03/29 06:02:24;;;;;;;190.98;53.55;;;;;;;8.47;100.00;98959.34;5115392;28;20409;-81
2022/03/29 06:04:50;;;;;;;162.60;56.25;;;;;;;8.46;100.00;98960.34;5102024;28;20097;-81
2022/03/29 06:07:17;;;;;;;135.63;51.13;;;;;;;8.67;100.00;98970.06;5092966;28;20024;-81
2022/03/29 06:09:43;;;;;;;155.68;56.83;;;;;;;8.60;100.00;98951.66;5113630;28;20143;-81
2022/03/29 06:12:09;;;;;;;152.27;54.35;;;;;;;8.56;100.00;98930.31;5086173;28;20035;-82
2022/03/29 06:14:36;;;;;;;129.63;54.35;;;;;;;8.82;100.00;98949.06;5103968;28;20028;-80
2022/03/29 06:17:02;;;;;;;120.10;48.40;;;;;;;8.65;100.00;98936.25;5086860;28;20462;-83
2022/03/29 06:19:28;;;;;;;140.40;50.10;;;;;;;8.64;100.00;98918.09;5115160;28;20031;-80
2022/03/29 06:21:54;;;;;;;133.57;50.10;;;;;;;8.93;100.00;98940.75;5107669;28;20038;-80
2022/03/29 06:24:19;;;;;;;105.35;47.25;;;;;;;9.20;100.00;98959.31;5111898;28;20052;-81
2022/03/29 06:26:45;;;;;;;106.88;45.90;;;;;;;9.11;100.00;98949.97;5088842;28;20031;-78
2022/03/29 06:29:11;;;;;;;104.22;45.83;;;;;;;9.06;100.00;98944.50;5108238;28;20038;-79
2022/03/29 06:31:39;;;;;;;166.68;46.60;;;;;;;9.08;100.00;98960.84;5092433;28;20024;-80
2022/03/29 06:34:05;;;;;;;100.38;45.47;;;;;;;9.19;100.00;98975.22;5100388;28;20028;-80
2022/03/29 06:36:31;;;;;;;127.30;48.92;;;;;;;9.21;100.00;98974.03;5109081;28;20054;-81
2022/03/29 06:38:57;;;;;;;105.15;46.72;;;;;;;9.23;100.00;98961.56;5110096;28;20121;-81
2022/03/29 06:41:23;;;;;;;105.68;46.50;;;;;;;9.28;100.00;98974.09;5082325;28;20393;-82
2022/03/29 06:43:49;;;;;;;102.88;44.22;;;;;;;9.38;100.00;98979.84;5091044;28;20023;-81
2022/03/29 06:46:15;;;;;;;110.22;45.42;;;;;;;9.49;100.00;98986.38;5111952;28;20029;-81
2022/03/29 06:48:41;;;;;;;139.77;49.78;;;;;;;9.41;100.00;98973.41;5100233;28;20592;-82
2022/03/29 06:51:09;;;;;;;138.98;52.22;;;;;;;9.40;100.00;98977.84;5108352;28;20056;-83
2022/03/29 06:53:38;;;;;;;124.57;46.55;;;;;;;9.13;100.00;98945.38;5105813;28;20035;-83
2022/03/29 06:56:05;;;;;;;134.43;47.15;;;;;;;9.22;100.00;98975.66;5106124;28;20040;-82
2022/03/29 06:58:31;;;;;;;112.85;48.53;;;;;;;9.50;100.00;98976.69;5105484;28;20035;-83
2022/03/29 07:00:57;;;;;;;131.05;51.50;;;;;;;9.35;100.00;98961.06;5108338;28;20040;-81
2022/03/29 07:03:23;;;;;;;126.93;51.92;;;;;;;9.54;100.00;98970.09;5107308;28;20431;-82
2022/03/29 07:05:50;;;;;;;108.72;48.28;;;;;;;9.56;100.00;98965.50;5109508;28;20357;-84
2022/03/29 07:08:18;;;;;;;163.57;50.33;;;;;;;9.41;100.00;98957.69;5106044;28;20035;-83
2022/03/29 07:13:29;;;;;;;109.05;47.22;;;;;;;9.54;100.00;98968.28;5106416;28;20073;-85
2022/03/29 07:15:54;;;;;;;108.20;48.10;;;;;;;9.52;100.00;98975.53;5104656;28;20069;-85
2022/03/29 07:18:20;;;;;;;106.65;44.80;;;;;;;9.56;100.00;98970.72;5104825;28;20062;-86
2022/03/29 07:20:45;;;;;;;205.68;49.08;;;;;;;9.30;100.00;98977.34;5109115;28;20379;-86
2022/03/29 07:23:12;;;;;;;105.07;45.45;;;;;;;9.41;100.00;98978.63;5112517;28;20032;-84
2022/03/29 07:25:37;;;;;;;117.18;49.85;;;;;;;9.58;100.00;98987.88;5091221;28;20496;-85
2022/03/29 07:28:04;;;;;;;190.75;54.25;;;;;;;9.42;100.00;98975.84;5107305;28;20027;-84
2022/03/29 07:30:33;;;;;;;121.50;51.28;;;;;;;9.64;100.00;98977.66;5104252;28;20023;-85
2022/03/29 07:32:59;;;;;;;169.82;53.15;;;;;;;9.19;100.00;98960.31;5097785;28;20028;-84
2022/03/29 07:35:28;;;;;;;117.35;49.65;;;;;;;9.33;100.00;98971.72;5104427;28;20039;-84
2022/03/29 07:37:54;;;;;;;208.63;53.33;;;;;;;9.37;100.00;98975.59;5103942;28;20039;-85
2022/03/29 07:40:29;;;;;;;100.97;46.58;;;;;;;9.63;100.00;98976.00;5096970;28;20059;-84
2022/03/29 07:42:57;;;;;;;130.82;49.85;;;;;;;9.36;100.00;98967.94;5111917;28;20046;-83
2022/03/29 07:45:24;;;;;;;117.07;49.58;;;;;;;9.48;100.00;98979.53;5112413;28;20027;-84
2022/03/29 07:47:52;;;;;;;104.95;46.20;;;;;;;9.42;100.00;98954.06;5100028;28;20420;-84
2022/03/29 07:50:26;;;;;;;105.55;47.53;;;;;;;9.39;100.00;98941.34;5111777;28;20047;-85
2022/03/29 07:52:54;;;;;;;199.70;53.58;;;;;;;9.15;100.00;98966.94;5096171;28;20401;-84
2022/03/29 07:55:20;;;;;;;142.00;50.47;;;;;;;9.24;100.00;98960.59;5092437;28;20039;-84
2022/03/29 07:57:45;;;;;;;268.40;55.30;;;;;;;9.07;100.00;98972.31;5085262;28;20028;-85
2022/03/29 08:00:32;;;;;;;144.55;52.75;;;;;;;9.14;100.00;98941.75;5088358;28;20032;-84
2022/03/29 08:03:06;;;;;;;165.57;53.47;;;;;;;9.38;100.00;98973.78;5107177;28;20081;-85
2022/03/29 08:05:34;;;;;;;115.95;49.30;;;;;;;9.42;100.00;98975.84;5085426;28;20035;-85
2022/03/29 08:08:01;;;;;;;119.22;48.97;;;;;;;9.28;100.00;98953.97;5103313;28;20016;-85
2022/03/29 08:10:29;;;;;;;109.88;48.97;;;;;;;9.50;100.00;98948.72;5112338;28;20097;-86
2022/03/29 08:12:57;;;;;;;111.75;49.75;;;;;;;9.58;100.00;98980.00;5092308;28;20055;-88
2022/03/29 08:15:23;;;;;;;126.53;48.28;;;;;;;9.47;100.00;98972.66;5110204;28;20035;-89
2022/03/29 08:17:50;;;;;;;106.90;50.40;;;;;;;9.67;100.00;98972.03;5106471;28;20031;-87
2022/03/29 08:20:15;;;;;;;116.10;48.65;;;;;;;9.69;100.00;98951.66;5106808;28;20488;-88
2022/03/29 08:22:44;;;;;;;106.95;48.15;;;;;;;9.99;100.00;98959.31;5089653;28;20088;-87
2022/03/29 08:25:12;;;;;;;112.75;48.00;;;;;;;10.11;100.00;98965.66;5099407;28;20028;-87
2022/03/29 08:27:38;;;;;;;122.38;47.88;;;;;;;10.33;100.00;98964.75;5101436;28;20017;-88
2022/03/29 08:30:05;;;;;;;102.68;45.53;;;;;;;10.70;100.00;98955.63;5101882;28;20044;-87
2022/03/29 08:32:32;;;;;;;97.60;43.30;;;;;;;10.59;100.00;98943.06;5105385;28;20041;-86
2022/03/29 08:34:59;;;;;;;91.68;43.13;;;;;;;11.12;100.00;98931.06;5103121;28;20032;-88
2022/03/29 08:37:25;;;;;;;77.35;39.65;;;;;;;10.65;100.00;98952.81;5104481;28;20024;-88
2022/03/29 08:39:51;;;;;;;87.00;40.35;;;;;;;10.75;100.00;98951.59;5107919;28;20054;-85
2022/03/29 08:42:20;;;;;;;85.10;40.63;;;;;;;11.02;100.00;98951.69;5105151;28;20055;-85
2022/03/29 08:44:46;;;;;;;86.97;38.97;;;;;;;10.89;100.00;98948.03;5103084;28;20039;-87
2022/03/29 08:47:15;;;;;;;84.47;40.83;;;;;;;11.19;100.00;98952.09;5110315;28;20027;-86
2022/03/29 08:49:45;;;;;;;83.57;39.88;;;;;;;11.43;100.00;98948.88;5095419;28;20044;-86
2022/03/29 08:52:11;;;;;;;83.18;41.40;;;;;;;11.28;100.00;98956.97;5105851;28;20136;-84
2022/03/29 08:54:38;;;;;;;91.20;42.40;;;;;;;11.10;100.00;98943.59;5102167;28;20024;-85
2022/03/29 08:57:04;;;;;;;100.30;45.40;;;;;;;11.38;100.00;98947.84;5097473;28;20097;-84
2022/03/29 08:59:30;;;;;;;89.35;43.92;;;;;;;11.36;100.00;98934.13;5095114;28;20509;-85
2022/03/29 09:01:57;;;;;;;88.93;42.03;;;;;;;11.63;100.00;98955.16;5101959;28;20500;-84
2022/03/29 09:04:29;;;;;;;84.35;42.00;;;;;;;11.42;100.00;98947.25;5096696;28;20390;-84
2022/03/29 09:07:00;;;;;;;96.18;46.75;;;;;;;11.38;100.00;98948.69;5096291;28;20032;-83
2022/03/29 09:09:26;;;;;;;98.95;46.25;;;;;;;11.28;100.00;98953.50;5096805;28;20531;-84
2022/03/29 09:11:55;;;;;;;95.57;47.40;;;;;;;11.32;100.00;98951.31;5100082;28;20122;-84
2022/03/29 09:14:26;;;;;;;103.55;49.22;;;;;;;10.84;100.00;98955.69;5101282;28;20028;-84
2022/03/29 09:16:52;;;;;;;96.35;47.13;;;;;;;11.11;100.00;98939.97;5094934;28;20029;-83
2022/03/29 09:19:21;;;;;;;95.30;42.90;;;;;;;10.20;100.00;98949.75;5099303;28;20435;-85
2022/03/29 09:21:47;;;;;;;89.13;43.67;;;;;;;10.36;100.00;98949.41;5102622;28;20032;-83
2022/03/29 09:24:17;;;;;;;88.35;41.40;;;;;;;10.65;100.00;98942.31;5104337;28;20500;-84
2022/03/29 09:26:54;;;;;;;98.45;45.55;;;;;;;11.16;100.00;98949.88;5101785;28;20039;-83
2022/03/29 09:29:24;;;;;;;91.28;42.75;;;;;;;11.37;100.00;98948.88;5104668;28;20114;-84
2022/03/29 09:32:12;;;;;;;96.28;43.42;;;;;;;11.94;100.00;98943.16;5103919;28;20533;-85
2022/03/29 09:34:38;;;;;;;89.00;41.78;;;;;;;11.81;100.00;98939.56;5102317;28;20525;-83
2022/03/29 09:37:05;;;;;;;93.07;40.88;;;;;;;11.35;100.00;98933.31;5103890;28;20032;-84
2022/03/29 09:39:44;;;;;;;94.60;43.40;;;;;;;11.20;100.00;98928.28;5102936;28;20039;-83
2022/03/29 09:42:12;;;;;;;88.35;38.50;;;;;;;11.50;100.00;98904.19;5100089;28;20114;-83
2022/03/29 09:44:51;;;;;;;85.07;41.25;;;;;;;11.57;100.00;98933.13;5078117;28;20543;-85
2022/03/29 09:47:20;;;;;;;79.45;37.75;;;;;;;11.32;100.00;98936.38;5096020;28;20019;-84
2022/03/29 09:50:02;;;;;;;79.60;37.95;;;;;;;11.68;100.00;98929.06;5103505;28;20039;-84
2022/03/29 09:52:30;;;;;;;85.15;38.05;;;;;;;11.69;100.00;98917.53;5102665;28;20031;-84
2022/03/29 09:55:17;;;;;;;88.45;40.45;;;;;;;11.07;100.00;98934.28;5108561;28;20059;-84
2022/03/29 09:57:50;;;;;;;101.18;40.72;;;;;;;11.22;100.00;98933.31;5103269;28;20066;-84
2022/03/29 10:00:19;;;;;;;63.85;27.42;;;;;;;11.61;100.00;98925.63;5103936;28;20032;-84
2022/03/29 10:02:46;;;;;;;79.35;34.97;;;;;;;11.71;100.00;98923.38;5104035;28;20039;-84
2022/03/29 10:05:15;;;;;;;79.80;35.75;;;;;;;11.32;100.00;98925.84;5098593;28;20028;-84
2022/03/29 10:07:46;;;;;;;79.32;33.70;;;;;;;11.28;100.00;98935.94;5100865;28;20491;-84
2022/03/29 10:10:12;;;;;;;68.32;32.88;;;;;;;11.49;100.00;98936.75;5095757;28;20477;-85
2022/03/29 10:12:39;;;;;;;68.75;32.97;;;;;;;11.72;100.00;98930.25;5097588;28;20501;-84
2022/03/29 10:15:06;;;;;;;76.57;33.85;;;;;;;12.00;100.00;98931.84;5098923;28;20126;-84
2022/03/29 10:17:32;;;;;;;69.20;34.38;;;;;;;12.16;100.00;98920.06;5104835;28;21545;-83
2022/03/29 10:19:59;;;;;;;77.75;35.40;;;;;;;12.56;100.00;98930.44;5099174;28;20067;-84
2022/03/29 10:22:25;;;;;;;67.07;30.98;;;;;;;11.96;100.00;98915.66;5106681;28;20023;-85
2022/03/29 10:24:53;;;;;;;61.38;28.40;;;;;;;11.85;100.00;98911.84;5097641;28;20459;-84
2022/03/29 10:27:20;;;;;;;58.80;26.85;;;;;;;12.32;100.00;98910.91;5086960;28;20046;-85
2022/03/29 10:29:46;;;;;;;62.33;29.63;;;;;;;12.56;100.00;98904.09;5101256;28;20476;-85
2022/03/29 10:32:27;;;;;;;65.45;30.80;;;;;;;12.46;100.00;98902.94;5105865;28;20497;-85
2022/03/29 10:35:06;;;;;;;69.22;30.15;;;;;;;12.52;100.00;98908.19;5106685;28;20039;-85
2022/03/29 10:37:55;;;;;;;72.28;33.40;;;;;;;12.76;100.00;98912.91;5102956;28;20130;-85
2022/03/29 10:40:36;;;;;;;65.72;32.85;;;;;;;12.86;100.00;98908.78;5108835;28;20065;-84
2022/03/29 10:43:29;;;;;;;66.20;32.65;;;;;;;12.51;100.00;98916.28;5103400;28;20035;-85
2022/03/29 10:45:57;;;;;;;72.65;34.10;;;;;;;12.42;100.00;98902.56;5085854;28;20032;-86
2022/03/29 10:48:23;;;;;;;71.00;34.33;;;;;;;12.37;100.00;98900.53;5101331;28;20032;-85
2022/03/29 10:50:54;;;;;;;73.00;34.17;;;;;;;12.22;100.00;98910.53;5105036;28;20066;-84
2022/03/29 10:53:31;;;;;;;79.63;32.83;;;;;;;11.46;100.00;98910.88;5085582;28;20032;-83
2022/03/29 10:56:15;;;;;;;75.63;34.15;;;;;;;11.16;100.00;98911.28;5109184;28;20067;-85
2022/03/29 10:59:03;;;;;;;81.28;34.53;;;;;;;11.09;100.00;98905.22;5102923;28;20458;-86
2022/03/29 11:01:32;;;;;;;76.50;32.63;;;;;;;11.09;100.00;98900.75;5104820;28;20409;-85
2022/03/29 11:04:07;;;;;;;75.32;32.92;;;;;;;11.17;100.00;98920.78;5100032;28;20059;-85
2022/03/29 11:06:34;;;;;;;76.72;32.08;;;;;;;11.37;100.00;98902.38;5084898;28;20046;-83
2022/03/29 11:09:08;;;;;;;66.22;28.20;;;;;;;11.57;100.00;98891.84;5110192;28;20043;-83
2022/03/29 11:11:47;;;;;;;69.28;29.42;;;;;;;12.43;100.00;98891.81;5106792;28;20028;-83
2022/03/29 11:14:35;;;;;;;66.70;29.60;;;;;;;12.98;100.00;98894.94;5101057;28;20396;-84
2022/03/29 11:17:01;;;;;;;71.05;31.70;;;;;;;12.21;100.00;98901.03;5100057;28;20034;-83
2022/03/29 11:19:46;;;;;;;78.22;32.83;;;;;;;13.17;100.00;98887.91;5085275;28;20165;-83
2022/03/29 11:22:33;;;;;;;80.57;32.35;;;;;;;13.49;100.00;98893.13;5100454;28;20028;-84